Aultbea, United Kingdom

6:32 AM BST on September 17, 2014 (GMT +0100)
Strath | Change Station
CLOSE
Current Station
Personal Weather Station
Location: Gairloch, ROSS-SHIRE
Elevation: 32 ft
Nearby Weather Stations

Elev 32 ft 57.73 °N, 5.70 °W | Updated 1 minute ago

Partly Cloudy
Partly Cloudy
56.3 °F
Feels Like 56.3 °F
N
0.0
Wind Variable Wind from North
Gusts 0.0 mph

Today
High -- | Low -- °F
--% Chance of Precip.
Yesterday
High -- | Low -- °F
Precip. -- in
6:56 AM 7:36 PM
Last Quarter, 39% visible
Pressure 30.04 in
Visibility 6.2 miles
Clouds Few 900 ft
Dew Point 55 °F
Humidity 95%
Rainfall 0.00 in
Snow Depth Not available.
UV 0 out of 12
Pollen Not available.
Air Quality Not available.
Flu Activity Not available.
METAR EGPO 170520Z 00000KT 9999 FEW009 12/12 Q1017

More Conditions Fewer Conditions

Pressure 30.04 in
Visibility 6.2 miles
Clouds Few 900 ft
Dew Point 55 °F
Humidity 95%
Rainfall 0.00 in
Snow Depth Not available.
UV 0 out of 12
Pollen Not available.
Air Quality Not available.
Flu Activity Not available.
METAR EGPO 170520Z 00000KT 9999 FEW009 12/12 Q1017

More Conditions Fewer Conditions

10-Day Weather Forecast

Almanac

Astronomy

Sep. 17, 2014 Rise Set
Actual Time 6:56 AM BST 7:36 PM BST
Civil Twilight 6:16 AM BST 8:15 PM BST
Nautical Twilight 5:28 AM BST 9:03 PM BST
Astronomical Twilight 4:36 AM BST 9:55 PM BST
Moon No Moon Rise 4:29 PM BST
Length of Visible Light 13h 58m
Length of Day
12h 40m
Tomorrow will be 4m 57s shorter.
Last Quarter, 39% of the Moon is Illuminated
Today
Last Quarter
Sep 24
New
Oct 1
First Quarter
Oct 8
Full
Oct 15
Last Quarter

Yesterday's Extremes

Country Highs Country Lows

Community

WunderPhotos

Upload Photos

1,753,968 photos uploaded!

Nearby

Snow Depth

Not available.

Earthquake Activity

City Distance Mag. Time & Date
No recent earthquake activity has been reported nearby.
Minimum magnitude displayed is 2.5.

Coastal Water Temperatures

Place Temperature
No Stations Reporting

Nearby Weather Stations